»·PEaware :: N122AJ KAMA-KABQ

N122AJ :: KAMA-KABQ

FLIGHT INFORMATION

Flight Status: Arrived
Operator: Privately registered:
United States
More flights under this callsign
Pilot: Anonymous 13363 (13363)
Aircraft: ECLIPSE 500
(EA50)
More flights by this aircraft type
Origin: KAMA Amarillo Intl
United States
Destination: KABQ Albuquerque Intl Sunport
United States
More flights between these airports :: More routes between these airports
Route: + / PNH215007 TCC MIERA2
File this flight plan on PilotEdge
Remarks:
Altitude:
(Current/Filed)
22,000ft
Speed:
(Current/Filed)
320kts
Departed: 23-Jul-17 04:43 PM
Arrived: 23-Jul-17 05:35 PM
Distance/Time
Traveled:
241nm/0:52
Distance/Time
To Go:
Arrived

Flight Plot

Page will automatically refresh every two minutes.

Flight plan parsing failed; only flown route is shown


Map Options




Map Legend


Flown Route
Filed Route
Departure Airport
Arrival Airport
Navaid (VOR, NDB)
Fix

Horizontal Profiles

Position Reports

Time Latitude Longitude Heading Altitude Ground
Speed
23-Jul-17 16:32 35.217442 -101.709467 225 3600ft 0kts
23-Jul-17 16:33 35.217442 -101.709467 225 3600ft 0kts
23-Jul-17 16:34 35.217442 -101.709467 225 3600ft 0kts
23-Jul-17 16:35 35.217442 -101.709467 225 3600ft 0kts
23-Jul-17 16:36 35.217442 -101.709467 225 3600ft 0kts
23-Jul-17 16:37 35.217442 -101.709467 225 3600ft 0kts
23-Jul-17 16:38 35.217442 -101.709467 225 3600ft 0kts
23-Jul-17 16:39 35.217442 -101.709467 225 3600ft 0kts
23-Jul-17 16:40 35.217442 -101.709467 225 3600ft 0kts
23-Jul-17 16:41 35.217441 -101.709467 225 3600ft 0kts
23-Jul-17 16:42 35.219621 -101.710081 46 3600ft 16kts
23-Jul-17 16:43 35.223567 -101.705048 44 3600ft 24kts
23-Jul-17 16:44 35.227990 -101.699454 46 3600ft 16kts
23-Jul-17 16:45 35.229253 -101.698169 48 3600ft 4kts
23-Jul-17 16:46 35.227150 -101.694391 136 3600ft 68kts
23-Jul-17 16:47 35.201181 -101.663022 137 4419ft 171kts
23-Jul-17 16:48 35.163271 -101.627612 176 6629ft 192kts
23-Jul-17 16:49 35.145763 -101.684690 275 8666ft 218kts
23-Jul-17 16:50 35.152254 -101.759063 275 10747ft 224kts
23-Jul-17 16:51 35.157299 -101.835728 269 12687ft 230kts
23-Jul-17 16:52 35.158201 -101.915273 270 14418ft 238kts
23-Jul-17 16:53 35.159601 -101.997463 271 16152ft 247kts
23-Jul-17 16:54 35.161173 -102.081956 272 17969ft 252kts
23-Jul-17 16:55 35.162818 -102.168208 273 19599ft 257kts
23-Jul-17 16:56 35.164417 -102.256033 274 21096ft 261kts
23-Jul-17 16:57 35.166102 -102.346416 274 22027ft 283kts
23-Jul-17 16:58 35.168150 -102.449601 274 22032ft 323kts
23-Jul-17 16:59 35.170086 -102.563470 273 22026ft 344kts
23-Jul-17 17:00 35.171905 -102.680549 273 22021ft 354kts
23-Jul-17 17:01 35.173635 -102.801634 273 22032ft 358kts
23-Jul-17 17:02 35.175243 -102.923112 273 22127ft 358kts
23-Jul-17 17:03 35.176706 -103.045063 273 22139ft 360kts
23-Jul-17 17:04 35.178059 -103.168123 273 22135ft 358kts
23-Jul-17 17:05 35.179375 -103.291186 273 22139ft 364kts
23-Jul-17 17:06 35.180584 -103.414993 273 22139ft 364kts
23-Jul-17 17:07 35.181619 -103.538134 273 22139ft 363kts
23-Jul-17 17:08 35.179444 -103.658997 269 22139ft 365kts
23-Jul-17 17:09 35.174016 -103.783123 269 22138ft 365kts
23-Jul-17 17:10 35.168450 -103.906703 269 22138ft 365kts
23-Jul-17 17:11 35.162744 -104.030581 269 22138ft 365kts
23-Jul-17 17:12 35.157041 -104.154598 269 22130ft 369kts
23-Jul-17 17:13 35.150972 -104.279417 269 22129ft 369kts
23-Jul-17 17:14 35.144794 -104.404239 269 22130ft 368kts
23-Jul-17 17:15 35.138506 -104.529280 269 22232ft 368kts
23-Jul-17 17:16 35.132211 -104.652333 268 22343ft 368kts
23-Jul-17 17:17 35.125843 -104.774568 268 22348ft 368kts
23-Jul-17 17:18 35.119193 -104.899632 268 22349ft 368kts
23-Jul-17 17:19 35.112439 -105.024190 268 22349ft 367kts
23-Jul-17 17:20 35.096589 -105.146979 262 22349ft 367kts
23-Jul-17 17:21 35.079255 -105.270069 262 22349ft 367kts
23-Jul-17 17:22 35.061825 -105.392773 262 22343ft 368kts
23-Jul-17 17:23 35.044256 -105.515627 262 22297ft 369kts
23-Jul-17 17:24 35.026462 -105.639420 262 21908ft 379kts
23-Jul-17 17:25 35.007987 -105.767664 261 20810ft 392kts
23-Jul-17 17:26 34.988952 -105.897655 260 19705ft 387kts
23-Jul-17 17:27 34.970109 -106.025266 260 18575ft 381kts
23-Jul-17 17:28 34.961641 -106.151412 278 17422ft 373kts
23-Jul-17 17:29 34.967158 -106.276170 273 15982ft 367kts
23-Jul-17 17:30 34.970500 -106.387236 262 14359ft 359kts
23-Jul-17 17:31 34.951142 -106.503446 258 13146ft 335kts
23-Jul-17 17:32 34.934211 -106.609918 258 10277ft 300kts
23-Jul-17 17:33 34.921008 -106.706878 280 8223ft 290kts
23-Jul-17 17:34 34.978323 -106.738561 12 7582ft 223kts
23-Jul-17 17:35 35.034805 -106.712521 50 6942ft 211kts
23-Jul-17 17:36 35.044649 -106.650725 88 5838ft 140kts
23-Jul-17 17:37 35.044344 -106.610746 96 5315ft 82kts
23-Jul-17 17:38 35.043919 -106.602508 161 5317ft 5kts
23-Jul-17 17:39 35.043358 -106.602615 187 5316ft 0kts
23-Jul-17 17:40 35.042785 -106.603396 231 5315ft 4kts
23-Jul-17 17:41 35.042340 -106.605744 269 5315ft 10kts
23-Jul-17 17:42 35.042431 -106.610367 273 5314ft 17kts
23-Jul-17 17:43 35.042508 -106.617589 268 5308ft 23kts
23-Jul-17 17:44 35.041764 -106.621391 189 5296ft 9kts
23-Jul-17 17:45 35.039756 -106.620969 102 5298ft 6kts
23-Jul-17 17:46 35.038538 -106.620204 127 5304ft 5kts
23-Jul-17 17:47 35.038209 -106.619777 133 5305ft 0kts
23-Jul-17 17:48 35.038209 -106.619777 133 5305ft 0kts
23-Jul-17 17:49 35.038209 -106.619777 133 5305ft 0kts
23-Jul-17 17:50 35.038209 -106.619777 133 5305ft 0kts
23-Jul-17 17:51 35.038209 -106.619777 133 5305ft 0kts
23-Jul-17 17:52 35.038209 -106.619777 133 5305ft 0kts

Navigation Log

Ident Type
Flight plan parsing failed, navigation log unavailable